Time;durP1;ratioP1;P1;durP2;ratioP2;P2;SDS_P1;SDS_P2;PMS_P1;PMS_P2;Temp;Humidity;BMP_temperature;BMP_pressure;BME280_temperature;BME280_humidity;BME280_pressure;Samples;Min_cycle;Max_cycle;Signal;HPM_P1;HPM_P2
2021/12/07 00:03:44;;;;;;;1999.90;999.90;;;;;;;1.55;81.77;100841.59;15862921;28;20046;-65
2021/12/07 00:11:19;;;;;;;1999.90;999.90;;;;;;;1.89;80.47;100830.16;15835495;28;20040;-65
2021/12/07 00:18:52;;;;;;;1999.90;999.90;;;;;;;1.82;79.94;100824.91;15849529;28;20137;-67
2021/12/07 00:26:26;;;;;;;1999.90;999.90;;;;;;;1.48;81.06;100807.22;15827973;28;20048;-64
2021/12/07 00:34:07;;;;;;;1999.90;999.90;;;;;;;1.55;80.17;100791.28;15858865;27;20051;-67
2021/12/07 00:41:42;;;;;;;1999.90;999.90;;;;;;;1.39;81.63;100787.66;15828481;28;20057;-66
2021/12/07 00:49:16;;;;;;;1999.90;999.90;;;;;;;1.73;81.46;100779.75;15827970;28;20048;-66
2021/12/07 00:56:50;;;;;;;1999.90;999.90;;;;;;;1.65;81.28;100781.13;15837095;28;20104;-64
2021/12/07 01:04:25;;;;;;;1999.90;999.90;;;;;;;1.47;80.70;100775.31;15841973;28;20131;-65
2021/12/07 01:27:44;;;;;;;1999.90;999.90;;;;;;;1.83;79.22;100759.69;15845656;28;20085;-65
2021/12/07 01:35:42;;;;;;;1999.90;999.90;;;;;;;1.18;79.81;100736.47;15808975;28;20043;-65
2021/12/07 01:51:26;;;;;;;1999.90;999.90;;;;;;;1.40;78.59;100704.06;15828211;28;20400;-66
2021/12/07 02:06:50;;;;;;;1999.90;999.90;;;;;;;1.01;79.92;100682.53;15817150;28;20036;-66
2021/12/07 02:14:26;;;;;;;1999.90;999.90;;;;;;;1.47;77.68;100682.66;15796624;28;20040;-65
2021/12/07 02:22:01;;;;;;;1999.90;999.90;;;;;;;1.22;78.06;100674.34;15843572;28;20118;-66
2021/12/07 02:29:40;;;;;;;1999.90;999.90;;;;;;;1.41;77.05;100668.06;15820789;28;20047;-66
2021/12/07 02:37:15;;;;;;;1999.90;999.90;;;;;;;1.09;78.04;100668.28;15721979;22;20040;-61
2021/12/07 02:44:47;;;;;;;1999.90;999.90;;;;;;;1.00;78.06;100674.56;15665291;28;20049;-62
2021/12/07 02:52:23;;;;;;;1999.90;999.90;;;;;;;0.88;78.94;100672.06;15682075;28;20135;-60
2021/12/07 03:00:00;;;;;;;1999.90;999.90;;;;;;;1.02;78.41;100669.63;15664873;28;20071;-58
2021/12/07 03:07:49;;;;;;;1999.90;999.90;;;;;;;1.08;78.38;100672.13;15680474;28;20053;-58
2021/12/07 03:31:08;;;;;;;1999.90;999.90;;;;;;;0.92;79.17;100655.84;15663057;28;20041;-60
2021/12/07 03:38:44;;;;;;;1999.90;999.90;;;;;;;1.04;78.87;100654.53;15661060;28;20076;-59
2021/12/07 03:46:18;;;;;;;1999.90;999.90;;;;;;;0.66;80.01;100653.03;15679244;28;20037;-61
2021/12/07 03:53:52;;;;;;;1999.90;999.90;;;;;;;0.67;81.25;100659.34;15677924;28;20056;-61
2021/12/07 04:01:26;;;;;;;1999.90;999.90;;;;;;;0.63;80.14;100667.31;15677244;28;20484;-59
2021/12/07 04:09:04;;;;;;;1999.90;999.90;;;;;;;0.70;81.03;100662.38;15677490;28;20144;-59
2021/12/07 04:16:40;;;;;;;1999.90;999.90;;;;;;;0.80;80.79;100651.44;15659717;28;20131;-59
2021/12/07 04:24:31;;;;;;;;;;;;;;;;;;;;;
2021/12/07 04:32:04;;;;;;;1999.90;999.90;;;;;;;1.08;80.21;100671.28;15663324;28;20536;-60
2021/12/07 04:39:57;;;;;;;1999.90;999.90;;;;;;;1.34;79.16;100663.91;15676416;28;20375;-60
2021/12/07 04:47:39;;;;;;;1999.90;999.90;;;;;;;1.12;80.25;100656.72;15675072;28;20093;-59
2021/12/07 05:03:07;;;;;;;1999.90;999.90;;;;;;;1.24;79.00;100672.13;15673115;28;20045;-62
2021/12/07 05:11:10;;;;;;;1999.90;999.90;;;;;;;1.37;79.43;100666.13;15674582;28;20073;-60
2021/12/07 05:18:56;;;;;;;1999.90;999.90;;;;;;;1.30;79.24;100665.56;15673037;28;20045;-59
2021/12/07 05:34:53;;;;;;;1999.90;999.90;;;;;;;1.42;77.93;100658.69;15671192;28;20060;-57
2021/12/07 05:42:27;;;;;;;1999.90;999.90;;;;;;;1.35;78.34;100666.38;15672156;28;20489;-61
2021/12/07 05:50:20;;;;;;;1999.90;999.90;;;;;;;1.18;78.47;100676.81;15689027;28;20068;-61
2021/12/07 05:57:58;;;;;;;1999.90;999.90;;;;;;;0.99;79.58;100670.16;15670153;28;20049;-60
2021/12/07 06:05:44;;;;;;;1999.90;999.90;;;;;;;1.10;78.88;100682.84;15669194;28;20065;-60
2021/12/07 06:13:19;;;;;;;1999.90;999.90;;;;;;;0.70;80.27;100680.78;15670710;28;20065;-60
2021/12/07 06:20:53;;;;;;;1999.90;999.90;;;;;;;0.87;78.89;100686.91;15669170;28;20041;-60
2021/12/07 06:28:38;;;;;;;1999.90;999.90;;;;;;;0.69;79.92;100693.69;15670078;28;20045;-61
2021/12/07 06:36:13;;;;;;;1999.90;999.90;;;;;;;0.88;78.95;100695.97;15670169;28;20047;-62
2021/12/07 06:43:47;;;;;;;1999.90;999.90;;;;;;;1.00;78.25;100699.31;15668460;28;20083;-62
2021/12/07 06:51:20;;;;;;;1999.90;999.90;;;;;;;1.04;77.42;100701.25;15652883;28;20049;-61
2021/12/07 06:58:54;;;;;;;1999.90;999.90;;;;;;;0.85;78.89;100703.66;15661080;28;20132;-59
2021/12/07 07:06:26;;;;;;;1999.90;999.90;;;;;;;0.82;79.21;100712.41;15664715;28;20067;-60
2021/12/07 07:14:01;;;;;;;1999.90;999.90;;;;;;;0.81;79.27;100720.94;15670640;28;20091;-58
2021/12/07 07:21:34;;;;;;;1999.90;999.90;;;;;;;0.84;80.03;100720.41;15678991;28;20570;-60
2021/12/07 07:29:08;;;;;;;1999.90;999.90;;;;;;;0.85;79.40;100731.13;15679668;28;20033;-61
2021/12/07 07:36:40;;;;;;;1999.90;999.90;;;;;;;1.10;79.25;100741.38;15681559;28;20044;-62
2021/12/07 07:44:14;;;;;;;1999.90;999.90;;;;;;;1.06;78.44;100743.03;15678997;28;20117;-61
2021/12/07 07:51:52;;;;;;;1999.90;999.90;;;;;;;1.07;78.40;100743.84;15678979;28;20067;-60
2021/12/07 07:59:30;;;;;;;1999.90;999.90;;;;;;;1.20;78.73;100746.09;15679835;28;20226;-62
2021/12/07 08:07:04;;;;;;;1999.90;999.90;;;;;;;1.06;78.84;100745.78;15678039;28;20075;-61
2021/12/07 08:14:39;;;;;;;1999.90;999.90;;;;;;;1.26;77.17;100753.28;15677055;28;20155;-61
2021/12/07 08:22:12;;;;;;;1999.90;999.90;;;;;;;1.00;78.87;100760.56;15678010;28;20425;-60
2021/12/07 08:29:45;;;;;;;1999.90;999.90;;;;;;;1.31;77.74;100766.19;15677189;28;20099;-62
2021/12/07 08:37:18;;;;;;;1999.90;999.90;;;;;;;1.49;77.34;100770.38;15692465;22;20077;-65
2021/12/07 08:44:52;;;;;;;1999.90;999.90;;;;;;;1.36;77.44;100761.53;15703796;28;20045;-67
2021/12/07 08:52:25;;;;;;;1999.90;999.90;;;;;;;1.20;78.32;100761.75;15742732;28;20041;-66
2021/12/07 08:59:59;;;;;;;1999.90;999.90;;;;;;;1.35;77.30;100776.34;15805810;28;20076;-66
2021/12/07 09:07:31;;;;;;;1999.90;999.90;;;;;;;1.62;76.31;100780.84;15752241;28;20508;-66
2021/12/07 09:15:07;;;;;;;1999.90;999.90;;;;;;;1.59;77.47;100781.41;15743078;28;20382;-65
2021/12/07 09:22:39;;;;;;;1999.90;999.90;;;;;;;1.76;75.72;100792.97;15781873;28;20040;-67
2021/12/07 09:30:16;;;;;;;1999.90;999.90;;;;;;;1.92;75.07;100791.06;15804323;28;20096;-66
2021/12/07 09:37:51;;;;;;;1999.90;999.90;;;;;;;1.93;75.29;100796.31;15802803;28;20060;-66
2021/12/07 09:45:30;;;;;;;1999.90;999.90;;;;;;;2.14;74.36;100801.81;15803642;28;20544;-65
2021/12/07 09:53:04;;;;;;;1999.90;999.90;;;;;;;1.86;75.07;100798.47;15796817;28;20424;-65
2021/12/07 10:00:39;;;;;;;1999.90;999.90;;;;;;;1.98;75.27;100793.56;15739422;28;20048;-64
2021/12/07 10:08:13;;;;;;;1999.90;999.90;;;;;;;1.53;75.70;100779.72;15741244;28;20049;-65
2021/12/07 10:15:53;;;;;;;1999.90;999.90;;;;;;;1.56;77.16;100803.91;15722612;28;20063;-66
2021/12/07 10:23:33;;;;;;;1999.90;999.90;;;;;;;1.96;75.92;100798.50;15740014;28;20120;-66
2021/12/07 10:31:19;;;;;;;1999.90;999.90;;;;;;;2.10;75.24;100792.47;15738666;28;20064;-66
2021/12/07 10:38:57;;;;;;;1999.90;999.90;;;;;;;2.37;74.91;100783.91;15739098;28;20509;-65
2021/12/07 10:46:52;;;;;;;1999.90;999.90;;;;;;;2.38;74.18;100772.59;15724990;28;20489;-68
2021/12/07 10:54:27;;;;;;;1999.90;999.90;;;;;;;2.08;75.03;100775.38;15799329;28;20047;-67
2021/12/07 11:02:12;;;;;;;1999.90;999.90;;;;;;;2.30;74.50;100779.53;15757109;28;20114;-64
2021/12/07 11:10:00;;;;;;;1999.90;999.90;;;;;;;2.00;75.61;100761.09;15805402;28;20083;-64
2021/12/07 11:17:35;;;;;;;1999.90;999.90;;;;;;;2.14;75.58;100758.59;15813681;28;20298;-67
2021/12/07 11:25:10;;;;;;;1999.90;999.90;;;;;;;2.20;75.00;100776.78;15773176;28;20079;-66
2021/12/07 11:32:48;;;;;;;1999.90;999.90;;;;;;;2.53;73.98;100775.38;15748415;28;20056;-65
2021/12/07 11:40:24;;;;;;;1999.90;999.90;;;;;;;2.67;73.69;100772.84;15748506;28;20455;-67
2021/12/07 11:48:01;;;;;;;1999.90;999.90;;;;;;;2.69;73.40;100762.38;15747559;28;20097;-67
2021/12/07 11:55:36;;;;;;;1999.90;999.90;;;;;;;2.56;74.37;100771.22;15752319;28;20412;-67
2021/12/07 12:03:13;;;;;;;1999.90;999.90;;;;;;;2.48;73.99;100747.00;15807160;28;20044;-66
2021/12/07 12:10:49;;;;;;;1999.90;999.90;;;;;;;3.11;72.21;100733.53;15807916;28;20512;-67
2021/12/07 12:18:35;;;;;;;1999.90;999.90;;;;;;;3.25;71.93;100731.84;15807456;28;20385;-66
2021/12/07 12:26:10;;;;;;;1999.90;999.90;;;;;;;2.60;73.95;100745.59;15808463;28;20044;-67
2021/12/07 12:33:50;;;;;;;1999.90;999.90;;;;;;;2.60;73.10;100750.25;15806110;28;20412;-66
2021/12/07 12:41:23;;;;;;;1999.90;999.90;;;;;;;2.51;73.33;100747.28;15807488;28;20047;-66
2021/12/07 12:49:00;;;;;;;1999.90;999.90;;;;;;;2.64;73.28;100748.63;15807436;28;20048;-66
2021/12/07 12:56:37;;;;;;;1999.90;999.90;;;;;;;2.58;73.47;100763.50;15792936;28;20113;-67
2021/12/07 13:04:12;;;;;;;1999.90;999.90;;;;;;;2.80;73.28;100757.66;15741621;28;20048;-64
2021/12/07 13:11:47;;;;;;;1999.90;999.90;;;;;;;2.49;73.25;100760.47;15741288;28;20044;-66
2021/12/07 13:19:22;;;;;;;1999.90;999.90;;;;;;;2.37;74.21;100765.44;15743472;28;20055;-65
2021/12/07 13:26:55;;;;;;;1999.90;999.90;;;;;;;2.26;74.68;100778.41;15741374;28;20432;-66
2021/12/07 13:34:33;;;;;;;1999.90;999.90;;;;;;;2.13;74.65;100786.41;15739695;28;20051;-67
2021/12/07 13:42:11;;;;;;;1999.90;999.90;;;;;;;2.01;75.33;100790.25;15742238;28;20442;-67
2021/12/07 13:49:48;;;;;;;1999.90;999.90;;;;;;;2.42;74.46;100786.69;15740402;28;20044;-64
2021/12/07 13:57:23;;;;;;;1999.90;999.90;;;;;;;2.47;74.50;100786.66;15741851;28;20420;-66
2021/12/07 14:05:08;;;;;;;1999.90;999.90;;;;;;;2.33;73.89;100805.69;15801428;28;20040;-64
2021/12/07 14:12:44;;;;;;;1999.90;999.90;;;;;;;2.40;74.32;100805.38;15799937;28;20048;-68
2021/12/07 14:20:34;;;;;;;1999.90;999.90;;;;;;;2.09;74.17;100829.34;15801911;28;20052;-65
2021/12/07 14:28:10;;;;;;;1999.90;999.90;;;;;;;1.92;75.17;100808.41;15835583;22;20079;-66
2021/12/07 14:35:44;;;;;;;1999.90;999.90;;;;;;;1.92;75.28;100811.16;15713671;28;20135;-64
2021/12/07 14:43:18;;;;;;;1999.90;999.90;;;;;;;2.38;74.10;100811.16;15748576;28;20059;-64
2021/12/07 14:50:52;;;;;;;1999.90;999.90;;;;;;;2.40;73.67;100831.03;15749090;28;20036;-64
2021/12/07 14:58:31;;;;;;;1999.90;999.90;;;;;;;2.28;74.74;100822.19;15758956;28;20484;-64
2021/12/07 15:06:06;;;;;;;1999.90;999.90;;;;;;;2.20;74.92;100828.25;15886894;22;20053;-74
2021/12/07 15:13:39;;;;;;;1999.90;999.90;;;;;;;2.19;75.09;100815.56;15650450;28;20145;-75
2021/12/07 15:21:16;;;;;;;1999.90;999.90;;;;;;;2.77;73.47;100821.59;15785659;22;20567;-64
2021/12/07 15:28:54;;;;;;;1999.90;999.90;;;;;;;2.36;74.52;100812.56;15826885;28;20117;-65
2021/12/07 15:36:32;;;;;;;1999.90;999.90;;;;;;;2.68;73.71;100802.03;15797202;28;20060;-65
2021/12/07 15:44:05;;;;;;;1999.90;999.90;;;;;;;2.44;74.62;100792.72;15807914;28;20071;-65
2021/12/07 15:51:49;;;;;;;1999.90;999.90;;;;;;;2.54;74.49;100779.75;15821581;28;20105;-65
2021/12/07 15:59:21;;;;;;;1999.90;999.90;;;;;;;2.56;74.57;100785.00;15817465;28;20047;-65
2021/12/07 16:06:56;;;;;;;1999.90;999.90;;;;;;;2.44;74.79;100781.72;15800932;28;20424;-65
2021/12/07 16:14:30;;;;;;;1999.90;999.90;;;;;;;2.42;75.07;100776.47;15805232;28;20062;-66
2021/12/07 16:22:04;;;;;;;1999.90;999.90;;;;;;;2.70;73.82;100760.44;15798203;28;20048;-65
2021/12/07 16:29:37;;;;;;;1999.90;999.90;;;;;;;2.43;73.83;100756.09;15781091;28;20048;-63
2021/12/07 16:37:11;;;;;;;1999.90;999.90;;;;;;;2.44;74.27;100762.44;15797900;28;20052;-62
2021/12/07 16:44:44;;;;;;;1999.90;999.90;;;;;;;2.42;73.84;100767.41;15790671;28;20040;-65
2021/12/07 16:52:18;;;;;;;1999.90;999.90;;;;;;;2.50;74.00;100742.00;15794489;28;20473;-66
2021/12/07 16:59:53;;;;;;;1999.90;999.90;;;;;;;2.26;74.75;100748.13;15761107;28;20106;-66
2021/12/07 17:07:30;;;;;;;1999.90;999.90;;;;;;;2.22;75.19;100749.78;15754065;28;20040;-63
2021/12/07 17:15:03;;;;;;;1999.90;999.90;;;;;;;2.58;74.05;100752.47;15798643;28;20040;-65
2021/12/07 17:22:37;;;;;;;;;;;;;;;2.61;74.31;100760.19;15799081;28;20132;-64
2021/12/07 17:30:12;;;;;;;1999.90;999.90;;;;;;;2.51;74.73;100735.44;15795225;28;19995;-65
2021/12/07 17:37:46;;;;;;;1999.90;999.90;;;;;;;2.26;75.33;100728.03;15794919;28;20138;-65
2021/12/07 17:45:22;;;;;;;1999.90;999.90;;;;;;;2.48;75.17;100745.06;15795065;28;20036;-65
2021/12/07 17:52:56;;;;;;;1999.90;999.90;;;;;;;2.33;75.87;100747.84;15794419;28;20429;-66
2021/12/07 18:00:31;;;;;;;1999.90;999.90;;;;;;;2.66;74.18;100742.81;15776196;28;20075;-65
2021/12/07 18:08:05;;;;;;;1999.90;999.90;;;;;;;2.57;74.81;100731.53;15795838;28;20048;-65
2021/12/07 18:15:41;;;;;;;1999.90;999.90;;;;;;;2.53;74.93;100725.78;15794704;28;20059;-65
2021/12/07 18:23:18;;;;;;;1999.90;999.90;;;;;;;2.43;75.46;100734.06;15794708;28;20136;-65
2021/12/07 18:30:52;;;;;;;1999.90;999.90;;;;;;;2.54;75.46;100719.16;15794152;28;20483;-66
2021/12/07 18:38:29;;;;;;;1999.90;999.90;;;;;;;2.68;75.41;100708.38;15790935;28;20063;-64
2021/12/07 18:46:02;;;;;;;1999.90;999.90;;;;;;;2.64;75.23;100711.97;15792486;28;20452;-65
2021/12/07 18:53:37;;;;;;;1999.90;999.90;;;;;;;2.63;75.22;100705.63;15792128;28;20801;-65
2021/12/07 19:01:11;;;;;;;1999.90;999.90;;;;;;;2.36;75.54;100705.16;15794588;28;20066;-66
2021/12/07 19:08:46;;;;;;;1999.90;999.90;;;;;;;2.47;75.29;100679.22;15779870;28;20038;-64
2021/12/07 19:16:17;;;;;;;1999.90;999.90;;;;;;;2.38;75.51;100678.16;15834244;28;20128;-65
2021/12/07 19:23:51;;;;;;;1999.90;999.90;;;;;;;2.37;75.88;100659.97;15819956;28;20052;-65
2021/12/07 19:31:24;;;;;;;1999.90;999.90;;;;;;;2.58;75.34;100643.09;15836334;28;20040;-64
2021/12/07 19:39:00;;;;;;;1999.90;999.90;;;;;;;2.40;75.64;100635.47;15788002;28;20044;-65
2021/12/07 19:46:33;;;;;;;1999.90;999.90;;;;;;;2.40;75.45;100627.22;15806925;28;20121;-66
2021/12/07 19:54:11;;;;;;;1999.90;999.90;;;;;;;2.43;75.20;100618.38;15804477;28;20105;-65
2021/12/07 20:01:46;;;;;;;1999.90;999.90;;;;;;;2.39;75.58;100632.97;15825607;28;20437;-64
2021/12/07 20:09:21;;;;;;;1999.90;999.90;;;;;;;2.48;75.68;100625.78;15821870;28;20040;-65
2021/12/07 20:16:53;;;;;;;1999.90;999.90;;;;;;;2.17;76.39;100622.31;15818003;28;20242;-68
2021/12/07 20:24:27;;;;;;;1999.90;999.90;;;;;;;2.43;75.77;100620.31;15758454;28;20051;-66
2021/12/07 20:32:02;;;;;;;1999.90;999.90;;;;;;;2.45;75.80;100612.59;15803235;28;20261;-66
2021/12/07 20:39:36;;;;;;;1999.90;999.90;;;;;;;2.31;75.95;100617.88;15843335;22;20055;-62
2021/12/07 20:47:09;;;;;;;1999.90;999.90;;;;;;;2.50;75.54;100607.91;15828333;28;20482;-64
2021/12/07 20:54:45;;;;;;;1999.90;999.90;;;;;;;2.39;75.92;100608.19;15740983;28;20048;-63
2021/12/07 21:02:19;;;;;;;1999.90;999.90;;;;;;;2.56;75.65;100594.91;15745624;28;20447;-62
2021/12/07 21:09:53;;;;;;;;;;;;;;;2.47;75.30;100585.59;15746015;28;20141;-59
2021/12/07 21:17:26;;;;;;;1999.90;999.90;;;;;;;2.21;76.47;100579.38;15782457;28;20353;-58
2021/12/07 21:25:01;;;;;;;1999.90;999.90;;;;;;;2.19;77.04;100570.53;15761613;28;20438;-62
2021/12/07 21:32:34;;;;;;;1999.90;999.90;;;;;;;2.29;76.18;100557.59;15770851;28;20064;-61
2021/12/07 21:40:11;;;;;;;1999.90;999.90;;;;;;;2.09;76.81;100532.91;15779520;28;20472;-62
2021/12/07 21:47:45;;;;;;;1999.90;999.90;;;;;;;2.12;76.87;100537.00;15739617;28;20278;-62
2021/12/07 21:55:20;;;;;;;1999.90;999.90;;;;;;;2.62;75.07;100535.94;15759070;28;20139;-62
2021/12/07 22:02:53;;;;;;;1999.90;999.90;;;;;;;1.89;76.97;100531.03;15746643;28;20071;-63
2021/12/07 22:10:27;;;;;;;1999.90;999.90;;;;;;;2.10;76.60;100526.28;15737683;28;20109;-62
2021/12/07 22:18:00;;;;;;;1999.90;999.90;;;;;;;1.60;78.23;100514.31;15741615;28;20519;-62
2021/12/07 22:25:33;;;;;;;1999.90;999.90;;;;;;;1.98;76.64;100493.56;15804712;28;20127;-59
2021/12/07 22:33:06;;;;;;;1999.90;999.90;;;;;;;1.79;77.68;100477.97;15752688;28;20527;-62
2021/12/07 22:40:43;;;;;;;1999.90;999.90;;;;;;;1.83;77.21;100479.03;15732334;28;20045;-61
2021/12/07 22:48:17;;;;;;;1999.90;999.90;;;;;;;1.52;78.08;100468.13;15795809;28;20058;-60
2021/12/07 22:55:53;;;;;;;1999.90;999.90;;;;;;;1.76;77.53;100462.00;15780999;28;20111;-58
2021/12/07 23:03:28;;;;;;;1999.90;999.90;;;;;;;1.74;77.42;100459.53;15784175;28;20150;-61
2021/12/07 23:11:06;;;;;;;1999.90;999.90;;;;;;;1.35;78.38;100459.34;15764536;28;20404;-61
2021/12/07 23:18:40;;;;;;;1999.90;999.90;;;;;;;1.76;77.42;100440.00;15765562;28;20052;-60
2021/12/07 23:26:15;;;;;;;1999.90;999.90;;;;;;;1.53;77.95;100435.94;15764042;28;20036;-60
2021/12/07 23:33:48;;;;;;;1999.90;999.90;;;;;;;1.50;77.38;100415.34;15773041;28;20358;-58
2021/12/07 23:41:23;;;;;;;1999.90;999.90;;;;;;;1.59;77.12;100416.41;15786168;28;20461;-60
2021/12/07 23:48:56;;;;;;;1999.90;999.90;;;;;;;1.70;76.80;100403.44;15742567;28;20071;-59
2021/12/07 23:56:29;;;;;;;1999.90;999.90;;;;;;;1.76;76.98;100396.78;15782693;28;20056;-61
